Aérodrome :
LOGIN :

S'inscrire | Disclaimer

   EN    FR    IT 

 










Légende :    VFR   VFR Marginal   IFR   IFR Intensif   IFR Très Intensif
Visi : 
Plafond : 
>= 8 km
>= 3000ft
5 à 8 km
1000 à 3000 ft
1500m à 5 km
500 à 1000 ft
800 à 1500m
200 à 500 ft
< 800m
< 200 ft
Symboles :   Orages  Brouillard  Fortes neiges  Fortes précipitations  Vent > 20 kt
SIGMETs :   Divers  Orages  Givrage  Turbulence  Onde Orograph.  Cendres Volcan.






- Altitude de l'aérodrome : 204 ft
- Code IATA : KSU


ENKB - Kristiansund , Kvernberget

DERNIER METAR :
  • 201120Z 11005KT 070V140 CAVOK 03/M02 Q1020 RMK WIND 745FT 14010KT

METARs EXPIRÉS :
  • 201050Z 12006KT 030V150 CAVOK 03/M03 Q1020 RMK WIND 745FT 14010KT
  • 201020Z 11004KT 070V190 CAVOK 04/M03 Q1020 RMK WIND 745FT 14010KT
  • 200950Z 06003KT 020V130 CAVOK 03/M02 Q1019 RMK WIND 745FT 15012KT
  • 200920Z 14004KT 090V190 CAVOK 04/M02 Q1019 RMK WIND 745FT 15012KT
  • 200850Z 10004KT 060V140 CAVOK 03/M02 Q1019 RMK WIND 745FT 16009KT

TAF TAF ENKB
Valide du 20 à 12h jusqu'au 20 à 21h UTC


201100Z 2012/2021 VRB05KT CAVOK



MET'MAP, la Météo Aéronautique d'un coup d'oeil ! - Copyright ORBIFLY Décembre 2007 - Disclaimer

ORBIFLY MET'MAP TEAM :

Programmation & Développement : Alexandra Zaïnal
Conception & Développement : Baudouin d'Aumeries
Co-Programmation & Développement : Marc-Olivier Méhu
Soutien technique & logistique : Manuel Goepfert

Contact : metmap@orbifly.com




SOURCES & CREDITS :

   NOAA